createdAt,value
2018-05-25T00:00:48.307Z,19.96
2018-05-25T00:01:48.340Z,20.13
2018-05-25T00:02:48.354Z,20.11
2018-05-25T00:03:48.388Z,20.24
2018-05-25T00:04:48.400Z,19.99
2018-05-25T00:05:48.415Z,19.70
2018-05-25T00:06:48.439Z,19.63
2018-05-25T00:07:48.452Z,19.47
2018-05-25T00:08:48.492Z,19.64
2018-05-25T00:09:48.502Z,19.82
2018-05-25T00:10:48.525Z,19.84
2018-05-25T00:11:48.550Z,20.11
2018-05-25T00:12:48.579Z,20.13
2018-05-25T00:13:48.607Z,20.14
2018-05-25T00:14:48.614Z,20.07
2018-05-25T00:15:48.629Z,20.10
2018-05-25T00:16:48.651Z,19.92
2018-05-25T00:17:48.675Z,19.99
2018-05-25T00:18:48.684Z,19.99
2018-05-25T00:19:48.711Z,20.06
2018-05-25T00:20:48.743Z,20.14
2018-05-25T00:21:48.768Z,19.99
2018-05-25T00:22:48.775Z,20.16
2018-05-25T00:23:48.798Z,20.28
2018-05-25T00:24:48.845Z,20.21
2018-05-25T00:25:48.839Z,20.16
2018-05-25T00:26:48.853Z,19.99
2018-05-25T00:27:48.877Z,20.16
2018-05-25T00:28:48.909Z,20.11
2018-05-25T00:29:48.919Z,20.13
2018-05-25T00:30:48.958Z,20.11
2018-05-25T00:31:48.967Z,20.16
2018-05-25T00:32:48.978Z,20.11
2018-05-25T00:33:49.009Z,20.28
2018-05-25T00:34:49.022Z,20.32
2018-05-25T00:35:49.056Z,20.29
2018-05-25T00:36:49.070Z,20.22
2018-05-25T00:37:49.085Z,20.25
2018-05-25T00:38:49.106Z,20.24
2018-05-25T00:39:49.132Z,20.37
2018-05-25T00:40:49.160Z,20.32
2018-05-25T00:41:49.173Z,20.24
2018-05-25T00:42:49.209Z,20.28
2018-05-25T00:43:49.231Z,20.19
2018-05-25T00:44:49.247Z,20.26
2018-05-25T00:45:49.261Z,20.29
2018-05-25T00:46:49.277Z,20.36
2018-05-25T00:47:49.314Z,20.29
2018-05-25T00:48:49.327Z,20.25
2018-05-25T00:49:49.375Z,20.36
2018-05-25T00:50:49.363Z,20.40
2018-05-25T00:51:49.397Z,20.36
2018-05-25T00:52:49.403Z,20.40
2018-05-25T00:53:49.449Z,20.48
2018-05-25T00:54:49.457Z,20.41
2018-05-25T00:55:49.469Z,20.40
2018-05-25T00:56:49.507Z,20.41
2018-05-25T00:57:49.519Z,20.37
2018-05-25T00:58:49.536Z,20.40
2018-05-25T00:59:49.570Z,20.43
2018-05-25T01:00:49.582Z,20.43
2018-05-25T01:01:49.602Z,20.47
2018-05-25T01:02:49.635Z,20.40
2018-05-25T01:03:49.639Z,20.43
2018-05-25T01:04:49.661Z,20.47
2018-05-25T01:05:49.681Z,20.58
2018-05-25T01:06:49.702Z,20.41
2018-05-25T01:07:49.722Z,20.52
2018-05-25T01:08:49.754Z,20.56
2018-05-25T01:09:49.787Z,20.50
2018-05-25T01:10:49.819Z,20.48
2018-05-25T01:11:49.805Z,20.48
2018-05-25T01:12:49.838Z,20.37
2018-05-25T01:13:49.911Z,20.26
2018-05-25T01:14:49.880Z,20.39
2018-05-25T01:15:49.900Z,20.56
2018-05-25T01:16:49.921Z,20.50
2018-05-25T01:17:49.934Z,20.28
2018-05-25T01:18:49.976Z,20.41
2018-05-25T01:19:50.004Z,20.41
2018-05-25T01:20:49.998Z,20.28
2018-05-25T01:21:50.029Z,20.36
2018-05-25T01:22:50.045Z,20.32
2018-05-25T01:23:50.066Z,20.41
2018-05-25T01:24:50.084Z,20.39
2018-05-25T01:25:50.105Z,20.31
2018-05-25T01:26:50.151Z,20.34
2018-05-25T01:27:50.153Z,20.43
2018-05-25T01:28:50.176Z,20.40
2018-05-25T01:29:50.188Z,20.44
2018-05-25T01:30:50.212Z,20.34
2018-05-25T01:31:50.230Z,20.31
2018-05-25T01:32:50.255Z,20.28
2018-05-25T01:33:50.281Z,20.29
2018-05-25T01:34:50.300Z,20.13
2018-05-25T01:35:50.327Z,20.18
2018-05-25T01:36:50.343Z,20.32
2018-05-25T01:37:50.370Z,20.25
2018-05-25T01:38:50.443Z,20.22
2018-05-25T01:39:50.408Z,20.16
2018-05-25T01:40:50.428Z,20.09
2018-05-25T01:41:50.452Z,20.09
2018-05-25T01:42:50.468Z,19.82
2018-05-25T01:43:50.488Z,19.88
2018-05-25T01:44:50.518Z,19.81
2018-05-25T01:45:50.541Z,19.73
2018-05-25T01:46:50.559Z,19.74
2018-05-25T01:47:50.595Z,19.79
2018-05-25T01:48:50.596Z,19.91
2018-05-25T01:49:50.628Z,19.82
2018-05-25T01:50:50.638Z,19.85
2018-05-25T01:51:50.680Z,19.82
2018-05-25T01:52:50.681Z,19.36
2018-05-25T01:53:50.700Z,19.70
2018-05-25T01:54:50.719Z,19.74
2018-05-25T01:55:50.752Z,19.62
2018-05-25T01:56:50.760Z,19.55
2018-05-25T01:57:50.795Z,19.59
2018-05-25T01:58:50.806Z,19.48
2018-05-25T01:59:50.853Z,19.26
2018-05-25T02:00:50.850Z,19.37
2018-05-25T02:01:50.871Z,19.39
2018-05-25T02:02:50.896Z,19.64
2018-05-25T02:03:50.907Z,19.76
2018-05-25T02:04:50.938Z,19.73
2018-05-25T02:05:50.957Z,19.88
2018-05-25T02:06:50.984Z,19.95
2018-05-25T02:07:50.992Z,19.81
2018-05-25T02:08:51.015Z,19.66
2018-05-25T02:09:51.038Z,19.74
2018-05-25T02:10:51.063Z,19.74
2018-05-25T02:11:51.085Z,19.76
2018-05-25T02:12:51.128Z,19.76
2018-05-25T02:13:51.122Z,19.82
2018-05-25T02:14:51.146Z,19.89
2018-05-25T02:15:51.177Z,19.92
2018-05-25T02:16:51.183Z,19.92
2018-05-25T02:17:51.211Z,19.92
2018-05-25T02:18:51.230Z,19.91
2018-05-25T02:19:51.245Z,19.92
2018-05-25T02:20:51.279Z,19.95
2018-05-25T02:21:51.309Z,19.95
2018-05-25T02:22:51.318Z,20.00
2018-05-25T02:23:51.332Z,20.02
2018-05-25T02:24:51.359Z,19.89
2018-05-25T02:25:51.404Z,20.00
2018-05-25T02:26:51.396Z,20.10
2018-05-25T02:27:51.418Z,19.73
2018-05-25T02:28:51.443Z,19.84
2018-05-25T02:29:51.475Z,19.91
2018-05-25T02:30:51.493Z,19.71
2018-05-25T02:31:51.503Z,19.49
2018-05-25T02:32:51.527Z,19.26
2018-05-25T02:33:51.548Z,19.36
2018-05-25T02:34:51.569Z,19.31
2018-05-25T02:35:51.586Z,19.19
2018-05-25T02:36:51.622Z,19.40
2018-05-25T02:37:51.627Z,19.15
2018-05-25T02:38:51.653Z,19.30
2018-05-25T02:39:51.671Z,19.30
2018-05-25T02:40:51.698Z,19.24
2018-05-25T02:41:51.712Z,19.26
2018-05-25T02:42:51.739Z,19.16
2018-05-25T02:43:51.762Z,19.22
2018-05-25T02:44:51.783Z,19.29
2018-05-25T02:45:51.803Z,19.34
2018-05-25T02:46:51.814Z,19.15
2018-05-25T02:47:51.861Z,19.18
2018-05-25T02:48:51.861Z,19.21
2018-05-25T02:49:51.889Z,19.18
2018-05-25T02:50:51.906Z,19.12
2018-05-25T02:51:51.923Z,19.16
2018-05-25T02:52:51.952Z,19.36
2018-05-25T02:53:51.999Z,19.62
2018-05-25T02:54:51.979Z,19.71
2018-05-25T02:55:52.010Z,19.76
2018-05-25T02:56:52.049Z,19.89
2018-05-25T02:57:52.047Z,19.84
2018-05-25T02:58:52.072Z,19.86
2018-05-25T02:59:52.085Z,19.85
2018-05-25T03:00:52.108Z,19.81
2018-05-25T03:01:52.130Z,19.67
2018-05-25T03:02:52.157Z,19.85
2018-05-25T03:03:52.180Z,19.82
2018-05-25T03:04:52.201Z,19.89
2018-05-25T03:05:52.223Z,19.94
2018-05-25T03:06:52.234Z,19.92
2018-05-25T03:07:52.260Z,20.00
2018-05-25T03:08:52.278Z,19.92
2018-05-25T03:09:52.299Z,20.00
2018-05-25T03:10:52.327Z,20.18
2018-05-25T03:11:52.375Z,20.03
2018-05-25T03:12:52.361Z,20.03
2018-05-25T03:13:52.392Z,20.19
2018-05-25T03:14:52.403Z,20.13
2018-05-25T03:15:52.430Z,20.18
2018-05-25T03:16:52.496Z,20.22
2018-05-25T03:17:52.481Z,20.24
2018-05-25T03:18:52.511Z,20.34
2018-05-25T03:19:52.513Z,20.24
2018-05-25T03:20:52.523Z,20.19
2018-05-25T03:21:52.550Z,20.14
2018-05-25T03:22:52.596Z,20.21
2018-05-25T03:23:52.619Z,20.25
2018-05-25T03:24:52.634Z,20.31
2018-05-25T03:25:52.642Z,20.29
2018-05-25T03:26:52.669Z,20.40
2018-05-25T03:27:52.674Z,20.36
2018-05-25T03:28:52.697Z,20.31
2018-05-25T03:29:52.721Z,20.34
2018-05-25T03:30:52.747Z,20.36
2018-05-25T03:31:52.763Z,20.25
2018-05-25T03:32:52.785Z,20.21
2018-05-25T03:33:52.816Z,20.26
2018-05-25T03:34:52.825Z,20.26
2018-05-25T03:35:52.850Z,20.40
2018-05-25T03:36:52.866Z,20.43
2018-05-25T03:37:52.888Z,20.36
2018-05-25T03:38:52.911Z,20.43
2018-05-25T03:39:52.954Z,20.36
2018-05-25T03:40:52.952Z,20.37
2018-05-25T03:41:52.968Z,20.43
2018-05-25T03:42:53.003Z,20.37
2018-05-25T03:43:53.008Z,20.48
2018-05-25T03:44:53.042Z,20.48
2018-05-25T03:45:53.056Z,20.36
2018-05-25T03:46:53.082Z,20.39
2018-05-25T03:47:53.109Z,20.40
2018-05-25T03:48:53.117Z,20.47
2018-05-25T03:49:53.155Z,20.56
2018-05-25T03:50:53.168Z,20.44
2018-05-25T03:51:53.204Z,20.39
2018-05-25T03:52:53.209Z,20.43
2018-05-25T03:53:53.229Z,20.39
2018-05-25T03:54:53.251Z,20.47
2018-05-25T03:55:53.274Z,20.48
2018-05-25T03:56:53.302Z,20.34
2018-05-25T03:57:53.359Z,20.26
2018-05-25T03:58:53.345Z,20.13
2018-05-25T03:59:53.359Z,20.28
2018-05-25T04:00:53.376Z,20.21
2018-05-25T04:01:53.414Z,20.32
2018-05-25T04:02:53.453Z,20.34
2018-05-25T04:03:53.441Z,20.37
2018-05-25T04:04:53.471Z,20.41
2018-05-25T04:05:53.489Z,20.43
2018-05-25T04:06:53.506Z,20.41
2018-05-25T04:07:53.531Z,20.47
2018-05-25T04:08:53.548Z,20.44
2018-05-25T04:09:53.572Z,20.37
2018-05-25T04:10:53.590Z,20.37
2018-05-25T04:11:53.620Z,20.39
2018-05-25T04:12:53.651Z,20.40
2018-05-25T04:13:53.659Z,20.43
2018-05-25T04:14:53.669Z,20.19
2018-05-25T04:15:53.715Z,20.03
2018-05-25T04:16:53.717Z,20.14
2018-05-25T04:17:53.751Z,20.19
2018-05-25T04:18:53.770Z,20.36
2018-05-25T04:19:53.781Z,20.36
2018-05-25T04:20:53.809Z,20.31
2018-05-25T04:21:53.822Z,20.41
2018-05-25T04:22:53.848Z,20.40
2018-05-25T04:23:53.864Z,20.43
2018-05-25T04:24:53.888Z,20.58
2018-05-25T04:25:53.905Z,20.52
2018-05-25T04:26:53.934Z,20.55
2018-05-25T04:27:53.952Z,20.59
2018-05-25T04:28:53.970Z,20.67
2018-05-25T04:29:53.997Z,20.60
2018-05-25T04:30:54.019Z,20.60
2018-05-25T04:31:54.039Z,20.11
2018-05-25T04:32:54.061Z,20.22
2018-05-25T04:33:54.086Z,20.28
2018-05-25T04:34:54.111Z,20.22
2018-05-25T04:35:54.123Z,20.16
2018-05-25T04:36:54.166Z,20.26
2018-05-25T04:37:54.171Z,20.24
2018-05-25T04:38:54.200Z,20.56
2018-05-25T04:39:54.209Z,20.39
2018-05-25T04:40:54.231Z,20.22
2018-05-25T04:41:54.246Z,20.22
2018-05-25T04:42:54.280Z,20.31
2018-05-25T04:43:54.299Z,20.44
2018-05-25T04:44:54.315Z,20.56
2018-05-25T04:45:54.345Z,20.75
2018-05-25T04:46:54.360Z,20.80
2018-05-25T04:47:54.392Z,20.96
2018-05-25T04:48:54.409Z,20.95
2018-05-25T04:49:54.489Z,21.06
2018-05-25T04:50:54.441Z,21.09
2018-05-25T04:51:54.476Z,20.93
2018-05-25T04:52:54.488Z,20.78
2018-05-25T04:53:54.514Z,21.05
2018-05-25T04:54:54.545Z,21.17
2018-05-25T04:55:54.554Z,21.17
2018-05-25T04:56:54.576Z,21.27
2018-05-25T04:57:54.606Z,21.45
2018-05-25T04:58:54.664Z,21.52
2018-05-25T04:59:54.641Z,22.04
2018-05-25T05:00:54.684Z,22.55
2018-05-25T05:01:54.688Z,23.23
2018-05-25T05:02:54.748Z,23.81
2018-05-25T05:03:54.726Z,24.40
2018-05-25T05:04:54.778Z,24.11
2018-05-25T05:05:54.798Z,24.63
2018-05-25T05:06:54.792Z,24.76
2018-05-25T05:07:54.826Z,24.57
2018-05-25T05:08:54.843Z,24.60
2018-05-25T05:09:54.866Z,24.77
2018-05-25T05:10:54.914Z,24.63
2018-05-25T05:11:54.914Z,24.53
2018-05-25T05:12:54.940Z,24.38
2018-05-25T05:13:54.964Z,24.35
2018-05-25T05:14:55.021Z,24.54
2018-05-25T05:15:55.018Z,24.45
2018-05-25T05:16:55.071Z,24.66
2018-05-25T05:17:55.061Z,24.53
2018-05-25T05:18:55.088Z,24.66
2018-05-25T05:19:55.111Z,24.54
2018-05-25T05:20:55.182Z,24.48
2018-05-25T05:21:55.158Z,24.51
2018-05-25T05:22:55.191Z,24.24
2018-05-25T05:23:55.209Z,23.98
2018-05-25T05:24:55.222Z,23.99
2018-05-25T05:25:55.241Z,23.91
2018-05-25T05:26:55.265Z,23.88
2018-05-25T05:27:55.294Z,23.87
2018-05-25T05:28:55.311Z,23.56
2018-05-25T05:29:55.358Z,23.56
2018-05-25T05:30:55.402Z,23.56
2018-05-25T05:31:55.391Z,23.68
2018-05-25T05:32:55.416Z,23.31
2018-05-25T05:33:55.447Z,23.24
2018-05-25T05:34:55.449Z,23.56
2018-05-25T05:35:55.484Z,23.32
2018-05-25T05:36:55.499Z,23.43
2018-05-25T05:37:55.534Z,23.10
2018-05-25T05:38:55.557Z,23.13
2018-05-25T05:39:55.586Z,23.40
2018-05-25T05:40:55.635Z,23.41
2018-05-25T05:41:55.640Z,23.65
2018-05-25T05:42:55.634Z,23.56
2018-05-25T05:43:55.663Z,23.66
2018-05-25T05:44:55.687Z,23.86
2018-05-25T05:45:55.712Z,24.10
2018-05-25T05:46:55.736Z,24.11
2018-05-25T05:47:55.749Z,24.05
2018-05-25T05:48:55.792Z,23.88
2018-05-25T05:49:55.800Z,24.11
2018-05-25T05:50:55.855Z,24.11
2018-05-25T05:51:55.841Z,23.83
2018-05-25T05:52:55.875Z,23.87
2018-05-25T05:53:55.905Z,24.05
2018-05-25T05:54:55.916Z,24.14
2018-05-25T05:55:55.935Z,24.30
2018-05-25T05:56:55.969Z,24.23
2018-05-25T05:57:55.986Z,23.87
2018-05-25T05:58:56.029Z,23.99
2018-05-25T05:59:56.034Z,24.35
2018-05-25T06:00:56.059Z,24.18
2018-05-25T06:01:56.077Z,24.13
2018-05-25T06:02:56.099Z,24.47
2018-05-25T06:03:56.125Z,24.78
2018-05-25T06:04:56.145Z,25.01
2018-05-25T06:05:56.194Z,24.95
2018-05-25T06:06:56.190Z,25.06
2018-05-25T06:07:56.228Z,25.04
2018-05-25T06:08:56.240Z,25.29
2018-05-25T06:09:56.263Z,25.43
2018-05-25T06:10:56.308Z,25.35
2018-05-25T06:11:56.317Z,24.93
2018-05-25T06:12:56.342Z,24.60
2018-05-25T06:13:56.364Z,24.60
2018-05-25T06:14:56.380Z,25.07
2018-05-25T06:15:56.406Z,25.33
2018-05-25T06:16:56.431Z,25.40
2018-05-25T06:17:56.453Z,25.43
2018-05-25T06:18:56.491Z,25.35
2018-05-25T06:19:56.513Z,25.16
2018-05-25T06:20:56.531Z,25.13
2018-05-25T06:21:56.564Z,25.17
2018-05-25T06:22:56.579Z,25.25
2018-05-25T06:23:56.599Z,25.50
2018-05-25T06:24:56.656Z,25.65
2018-05-25T06:25:56.647Z,25.84
2018-05-25T06:26:56.673Z,25.85
2018-05-25T06:27:56.695Z,26.00
2018-05-25T06:28:56.732Z,25.72
2018-05-25T06:29:56.741Z,25.60
2018-05-25T06:30:56.770Z,25.83
2018-05-25T06:31:56.796Z,25.35
2018-05-25T06:32:56.825Z,25.25
2018-05-25T06:33:56.835Z,25.50
2018-05-25T06:34:56.859Z,25.60
2018-05-25T06:35:56.890Z,25.77
2018-05-25T06:36:56.907Z,25.85
2018-05-25T06:37:56.930Z,25.80
2018-05-25T06:38:56.961Z,25.65
2018-05-25T06:39:56.971Z,25.80
2018-05-25T06:40:57.005Z,25.93
2018-05-25T06:41:57.041Z,25.38
2018-05-25T06:42:57.050Z,24.61
2018-05-25T06:43:57.073Z,25.07
2018-05-25T06:44:57.098Z,25.04
2018-05-25T06:45:57.151Z,25.29
2018-05-25T06:46:57.146Z,25.43
2018-05-25T06:47:57.171Z,25.32
2018-05-25T06:48:57.203Z,25.23
2018-05-25T06:49:57.218Z,25.44
2018-05-25T06:50:57.248Z,25.18
2018-05-25T06:51:57.277Z,24.81
2018-05-25T06:52:57.286Z,24.14
2018-05-25T06:53:57.308Z,24.45
2018-05-25T06:54:57.336Z,24.66
2018-05-25T06:55:57.375Z,24.86
2018-05-25T06:56:57.384Z,24.89
2018-05-25T06:57:57.487Z,24.95
2018-05-25T06:58:57.439Z,24.89
2018-05-25T06:59:57.450Z,24.69
2018-05-25T07:00:57.524Z,24.50
2018-05-25T07:01:57.503Z,24.48
2018-05-25T07:02:57.525Z,24.61
2018-05-25T07:03:57.577Z,24.36
2018-05-25T07:04:57.604Z,24.38
2018-05-25T07:05:57.602Z,24.57
2018-05-25T07:06:57.626Z,24.84
2018-05-25T07:07:57.640Z,24.77
2018-05-25T07:08:57.661Z,24.92
2018-05-25T07:09:57.687Z,25.11
2018-05-25T07:10:57.730Z,25.18
2018-05-25T07:11:57.742Z,25.26
2018-05-25T07:12:57.760Z,25.11
2018-05-25T07:13:57.784Z,24.99
2018-05-25T07:14:57.813Z,25.04
2018-05-25T07:15:57.824Z,24.93
2018-05-25T07:16:57.887Z,24.43
2018-05-25T07:17:57.884Z,24.45
2018-05-25T07:18:57.913Z,24.65
2018-05-25T07:19:57.927Z,24.29
2018-05-25T07:20:57.958Z,23.87
2018-05-25T07:21:57.971Z,23.80
2018-05-25T07:22:58.019Z,23.48
2018-05-25T07:23:58.029Z,23.71
2018-05-25T07:24:58.047Z,23.66
2018-05-25T07:25:58.076Z,23.50
2018-05-25T07:26:58.105Z,23.68
2018-05-25T07:27:58.111Z,23.65
2018-05-25T07:28:58.143Z,23.74
2018-05-25T07:29:58.170Z,23.59
2018-05-25T07:30:58.216Z,23.66
2018-05-25T07:31:58.224Z,23.69
2018-05-25T07:32:58.235Z,23.87
2018-05-25T07:33:58.257Z,23.99
2018-05-25T07:34:58.269Z,24.16
2018-05-25T07:35:58.294Z,24.57
2018-05-25T07:36:58.322Z,24.60
2018-05-25T07:37:58.348Z,24.88
2018-05-25T07:38:58.411Z,25.21
2018-05-25T07:39:58.399Z,24.76
2018-05-25T07:40:58.415Z,24.86
2018-05-25T07:41:58.438Z,24.80
2018-05-25T07:42:58.468Z,25.06
2018-05-25T07:43:58.506Z,25.21
2018-05-25T07:44:58.512Z,25.23
2018-05-25T07:45:58.537Z,25.23
2018-05-25T07:46:58.611Z,25.18
2018-05-25T07:47:58.582Z,25.48
2018-05-25T07:48:58.612Z,25.50
2018-05-25T07:49:58.638Z,25.48
2018-05-25T07:50:58.659Z,25.70
2018-05-25T07:51:58.745Z,25.69
2018-05-25T07:52:58.699Z,25.77
2018-05-25T07:53:58.750Z,25.87
2018-05-25T07:54:58.755Z,26.41
2018-05-25T07:55:58.776Z,27.05
2018-05-25T07:56:58.804Z,28.17
2018-05-25T07:57:58.860Z,28.22
2018-05-25T07:58:58.851Z,27.71
2018-05-25T07:59:58.884Z,28.41
2018-05-25T08:00:58.902Z,27.80
2018-05-25T08:01:58.930Z,28.75
2018-05-25T08:02:58.966Z,29.90
2018-05-25T08:03:58.981Z,29.07
2018-05-25T08:04:59.025Z,29.53
2018-05-25T08:05:59.036Z,28.96
2018-05-25T08:06:59.075Z,29.13
2018-05-25T08:07:59.096Z,29.76
2018-05-25T08:08:59.112Z,29.72
2018-05-25T08:09:59.197Z,30.16
2018-05-25T08:10:59.165Z,29.47
2018-05-25T08:11:59.233Z,29.56
2018-05-25T08:12:59.222Z,29.61
2018-05-25T08:13:59.255Z,29.95
2018-05-25T08:14:59.278Z,30.30
2018-05-25T08:15:59.312Z,30.25
2018-05-25T08:16:59.332Z,31.03
2018-05-25T08:17:59.347Z,32.29
2018-05-25T08:18:59.385Z,32.95
2018-05-25T08:19:59.421Z,33.07
2018-05-25T08:20:59.460Z,33.80
2018-05-25T08:21:59.526Z,32.70
2018-05-25T08:22:59.489Z,31.58
2018-05-25T08:23:59.515Z,32.07
2018-05-25T08:24:59.550Z,32.48
2018-05-25T08:25:59.581Z,33.30
2018-05-25T08:26:59.602Z,32.97
2018-05-25T08:27:59.631Z,31.93
2018-05-25T08:28:59.693Z,31.90
2018-05-25T08:29:59.696Z,31.85
2018-05-25T08:30:59.716Z,29.88
2018-05-25T08:31:59.730Z,28.32
2018-05-25T08:32:59.756Z,28.48
2018-05-25T08:33:59.799Z,28.70
2018-05-25T08:34:59.814Z,28.04
2018-05-25T08:35:59.842Z,28.12
2018-05-25T08:36:59.870Z,27.90
2018-05-25T08:37:59.904Z,28.02
2018-05-25T08:38:59.915Z,27.45
2018-05-25T08:39:59.951Z,27.59
2018-05-25T08:40:59.972Z,27.12
2018-05-25T08:41:59.989Z,27.39
2018-05-25T08:43:00.016Z,27.95
2018-05-25T08:44:00.043Z,26.88
2018-05-25T08:45:00.063Z,26.88
2018-05-25T08:46:00.110Z,26.78
2018-05-25T08:47:00.131Z,26.71
2018-05-25T08:48:00.165Z,26.16
2018-05-25T08:49:00.167Z,26.25
2018-05-25T08:50:00.189Z,26.09
2018-05-25T08:51:00.229Z,26.28
2018-05-25T08:52:00.240Z,26.77
2018-05-25T08:53:00.269Z,26.81
2018-05-25T08:54:00.297Z,26.88
2018-05-25T08:55:00.315Z,26.85
2018-05-25T08:56:00.339Z,27.15
2018-05-25T08:57:00.384Z,27.35
2018-05-25T08:58:00.399Z,27.60
2018-05-25T08:59:00.422Z,28.47
2018-05-25T09:00:00.454Z,28.75
2018-05-25T09:01:00.493Z,28.84
2018-05-25T09:02:00.490Z,28.05
2018-05-25T09:03:00.511Z,27.85
2018-05-25T09:04:00.548Z,28.39
2018-05-25T09:05:00.568Z,27.98
2018-05-25T09:06:00.592Z,28.47
2018-05-25T09:07:00.626Z,29.29
2018-05-25T09:08:00.647Z,29.29
2018-05-25T09:09:00.670Z,28.76
2018-05-25T09:10:00.702Z,28.25
2018-05-25T09:11:00.722Z,28.41
2018-05-25T09:12:00.741Z,28.75
2018-05-25T09:13:00.793Z,28.59
2018-05-25T09:14:00.794Z,27.73
2018-05-25T09:15:00.821Z,27.25
2018-05-25T09:16:00.842Z,27.71
2018-05-25T09:17:00.894Z,27.89
2018-05-25T09:18:00.893Z,27.37
2018-05-25T09:19:00.960Z,26.78
2018-05-25T09:20:00.962Z,26.56
2018-05-25T09:21:00.980Z,26.53
2018-05-25T09:22:01.003Z,26.83
2018-05-25T09:23:01.021Z,26.81
2018-05-25T09:24:01.052Z,26.65
2018-05-25T09:25:01.082Z,26.85
2018-05-25T09:26:01.106Z,26.93
2018-05-25T09:27:01.125Z,27.55
2018-05-25T09:28:01.145Z,27.59
2018-05-25T09:29:01.184Z,27.98
2018-05-25T09:30:01.196Z,28.11
2018-05-25T09:31:01.223Z,28.32
2018-05-25T09:32:01.248Z,28.75
2018-05-25T09:33:01.272Z,28.12
2018-05-25T09:34:01.299Z,27.32
2018-05-25T09:35:01.347Z,27.21
2018-05-25T09:36:01.380Z,27.15
2018-05-25T09:37:01.372Z,27.03
2018-05-25T09:38:01.397Z,27.12
2018-05-25T09:39:01.436Z,26.95
2018-05-25T09:40:01.448Z,27.21
2018-05-25T09:41:01.478Z,27.22
2018-05-25T09:42:01.501Z,26.71
2018-05-25T09:43:01.542Z,26.43
2018-05-25T09:44:01.544Z,26.88
2018-05-25T09:45:01.588Z,26.58
2018-05-25T09:46:01.606Z,26.90
2018-05-25T09:47:01.619Z,27.32
2018-05-25T09:48:01.677Z,27.00
2018-05-25T09:49:01.677Z,27.08
2018-05-25T09:50:01.691Z,26.81
2018-05-25T09:51:01.723Z,27.07
2018-05-25T09:52:01.750Z,27.18
2018-05-25T09:53:01.787Z,27.10
2018-05-25T09:54:01.794Z,27.25
2018-05-25T09:55:01.824Z,27.45
2018-05-25T09:56:01.908Z,27.77
2018-05-25T09:57:01.869Z,27.30
2018-05-25T09:58:01.894Z,27.59
2018-05-25T09:59:01.919Z,27.11
2018-05-25T10:00:01.947Z,27.11
2018-05-25T10:01:01.978Z,26.38
2018-05-25T10:02:01.993Z,26.62
2018-05-25T10:03:02.019Z,26.29
2018-05-25T10:04:02.045Z,26.65
2018-05-25T10:05:02.107Z,26.75
2018-05-25T10:06:02.093Z,26.03
2018-05-25T10:07:02.119Z,25.83
2018-05-25T10:08:02.165Z,25.72
2018-05-25T10:09:02.178Z,25.66
2018-05-25T10:10:02.190Z,25.23
2018-05-25T10:11:02.219Z,25.16
2018-05-25T10:12:02.236Z,25.21
2018-05-25T10:13:02.278Z,24.95
2018-05-25T10:14:02.291Z,25.03
2018-05-25T10:15:02.323Z,25.26
2018-05-25T10:16:02.337Z,25.29
2018-05-25T10:17:02.384Z,25.29
2018-05-25T10:18:02.381Z,25.35
2018-05-25T10:19:02.416Z,25.38
2018-05-25T10:20:02.428Z,24.99
2018-05-25T10:21:02.465Z,24.80
2018-05-25T10:22:02.477Z,24.92
2018-05-25T10:23:02.498Z,24.70
2018-05-25T10:24:02.538Z,24.74
2018-05-25T10:25:02.572Z,24.96
2018-05-25T10:26:02.577Z,25.10
2018-05-25T10:27:02.604Z,25.32
2018-05-25T10:28:02.621Z,25.44
2018-05-25T10:29:02.690Z,25.40
2018-05-25T10:30:02.682Z,25.65
2018-05-25T10:31:02.691Z,25.33
2018-05-25T10:32:02.717Z,25.66
2018-05-25T10:33:02.740Z,25.38
2018-05-25T10:34:02.766Z,25.46
2018-05-25T10:35:02.808Z,25.40
2018-05-25T10:36:02.815Z,25.60
2018-05-25T10:37:02.846Z,25.65
2018-05-25T10:38:02.865Z,25.33
2018-05-25T10:39:02.892Z,25.23
2018-05-25T10:40:02.912Z,24.92
2018-05-25T10:41:02.961Z,24.95
2018-05-25T10:42:02.960Z,25.03
2018-05-25T10:43:02.994Z,25.11
2018-05-25T10:44:03.004Z,25.06
2018-05-25T10:45:03.031Z,24.89
2018-05-25T10:46:03.052Z,25.10
2018-05-25T10:47:03.078Z,25.16
2018-05-25T10:48:03.099Z,25.11
2018-05-25T10:49:03.123Z,24.96
2018-05-25T10:50:03.166Z,24.89
2018-05-25T10:51:03.171Z,24.60
2018-05-25T10:52:03.198Z,24.32
2018-05-25T10:53:03.232Z,24.77
2018-05-25T10:54:03.244Z,24.53
2018-05-25T10:55:03.273Z,24.70
2018-05-25T10:56:03.350Z,24.66
2018-05-25T10:57:03.323Z,24.50
2018-05-25T10:58:03.338Z,24.65
2018-05-25T10:59:03.360Z,24.68
2018-05-25T11:00:03.384Z,24.51
2018-05-25T11:01:03.421Z,24.63
2018-05-25T11:02:03.440Z,24.68
2018-05-25T11:03:03.456Z,24.57
2018-05-25T11:04:03.478Z,24.77
2018-05-25T11:05:03.513Z,24.80
2018-05-25T11:06:03.528Z,24.69
2018-05-25T11:07:03.550Z,24.43
2018-05-25T11:08:03.578Z,24.65
2018-05-25T11:09:03.600Z,24.74
2018-05-25T11:10:03.631Z,24.53
2018-05-25T11:11:03.657Z,24.76
2018-05-25T11:12:03.695Z,24.65
2018-05-25T11:13:03.695Z,24.63
2018-05-25T11:14:03.721Z,24.55
2018-05-25T11:15:03.747Z,24.77
2018-05-25T11:16:03.764Z,24.81
2018-05-25T11:17:03.778Z,24.69
2018-05-25T11:18:03.804Z,24.70
2018-05-25T11:19:03.833Z,24.92
2018-05-25T11:20:03.856Z,24.93
2018-05-25T11:21:03.887Z,24.89
2018-05-25T11:22:03.899Z,24.91
2018-05-25T11:23:03.938Z,25.07
2018-05-25T11:24:03.953Z,25.03
2018-05-25T11:25:03.971Z,25.01
2018-05-25T11:26:04.019Z,24.99
2018-05-25T11:27:04.078Z,25.07
2018-05-25T11:28:04.059Z,24.89
2018-05-25T11:29:04.066Z,24.98
2018-05-25T11:30:04.092Z,24.93
2018-05-25T11:31:04.119Z,25.01
2018-05-25T11:32:04.135Z,25.46
2018-05-25T11:33:04.163Z,25.59
2018-05-25T11:34:04.181Z,25.18
2018-05-25T11:35:04.259Z,25.03
2018-05-25T11:36:04.230Z,24.96
2018-05-25T11:37:04.260Z,24.89
2018-05-25T11:38:04.277Z,25.04
2018-05-25T11:39:04.305Z,25.01
2018-05-25T11:40:04.338Z,25.06
2018-05-25T11:41:04.349Z,24.99
2018-05-25T11:42:04.368Z,25.36
2018-05-25T11:43:04.397Z,25.25
2018-05-25T11:44:04.424Z,25.44
2018-05-25T11:45:04.438Z,25.68
2018-05-25T11:46:04.496Z,25.58
2018-05-25T11:47:04.490Z,25.96
2018-05-25T11:48:04.528Z,25.91
2018-05-25T11:49:04.542Z,25.70
2018-05-25T11:50:04.560Z,25.63
2018-05-25T11:51:04.596Z,25.69
2018-05-25T11:52:04.618Z,25.77
2018-05-25T11:53:04.689Z,25.91
2018-05-25T11:54:04.656Z,26.09
2018-05-25T11:55:04.713Z,25.93
2018-05-25T11:56:04.743Z,26.18
2018-05-25T11:57:04.749Z,26.43
2018-05-25T11:58:04.759Z,26.41
2018-05-25T11:59:04.788Z,26.37
2018-05-25T12:00:04.804Z,26.38
2018-05-25T12:01:04.826Z,26.52
2018-05-25T12:02:04.853Z,26.93
2018-05-25T12:03:04.873Z,27.45
2018-05-25T12:04:04.897Z,27.48
2018-05-25T12:05:04.955Z,27.03
2018-05-25T12:06:04.951Z,26.68
2018-05-25T12:07:04.981Z,26.68
2018-05-25T12:08:04.998Z,26.93
2018-05-25T12:09:05.047Z,27.07
2018-05-25T12:10:05.061Z,27.45
2018-05-25T12:11:05.072Z,26.93
2018-05-25T12:12:05.118Z,26.95
2018-05-25T12:13:05.115Z,26.29
2018-05-25T12:14:05.146Z,26.66
2018-05-25T12:15:05.171Z,26.74
2018-05-25T12:16:05.193Z,26.66
2018-05-25T12:17:05.239Z,26.58
2018-05-25T12:18:05.247Z,26.26
2018-05-25T12:19:05.275Z,26.53
2018-05-25T12:20:05.293Z,26.21
2018-05-25T12:21:05.311Z,26.09
2018-05-25T12:22:05.338Z,25.84
2018-05-25T12:23:05.358Z,25.68
2018-05-25T12:24:05.385Z,25.58
2018-05-25T12:25:05.431Z,25.83
2018-05-25T12:26:05.429Z,26.43
2018-05-25T12:27:05.460Z,25.84
2018-05-25T12:28:05.518Z,25.90
2018-05-25T12:29:05.505Z,26.06
2018-05-25T12:30:05.535Z,26.41
2018-05-25T12:31:05.570Z,26.16
2018-05-25T12:32:05.580Z,26.40
2018-05-25T12:33:05.615Z,26.53
2018-05-25T12:34:05.673Z,25.98
2018-05-25T12:35:05.669Z,26.10
2018-05-25T12:36:05.682Z,25.84
2018-05-25T12:37:05.697Z,26.00
2018-05-25T12:38:05.766Z,26.26
2018-05-25T12:39:05.762Z,26.41
2018-05-25T12:40:05.800Z,26.06
2018-05-25T12:41:05.804Z,25.93
2018-05-25T12:42:05.818Z,25.75
2018-05-25T12:43:05.851Z,25.62
2018-05-25T12:44:05.879Z,26.13
2018-05-25T12:45:05.905Z,25.93
2018-05-25T12:46:05.925Z,25.77
2018-05-25T12:47:05.952Z,25.77
2018-05-25T12:48:05.987Z,26.09
2018-05-25T12:49:05.993Z,26.62
2018-05-25T12:50:06.018Z,25.95
2018-05-25T12:51:06.053Z,26.31
2018-05-25T12:52:06.062Z,26.45
2018-05-25T12:53:06.094Z,26.41